sensor_id;sensor_type;location;lat;lon;timestamp;pressure;altitude;pressure_sealevel;temperature;humidity
75424;BME280;64005;55.160;36.002;2023-03-23T00:02:24;98874.38;;;5.07;61.93
75424;BME280;64005;55.160;36.002;2023-03-23T00:04:52;98870.59;;;5.03;61.56
75424;BME280;64005;55.160;36.002;2023-03-23T00:07:20;98865.69;;;5.00;61.58
75424;BME280;64005;55.160;36.002;2023-03-23T00:09:50;98872.84;;;5.01;61.90
75424;BME280;64005;55.160;36.002;2023-03-23T00:12:21;98862.94;;;5.00;61.82
75424;BME280;64005;55.160;36.002;2023-03-23T00:14:59;98863.31;;;4.93;61.63
75424;BME280;64005;55.160;36.002;2023-03-23T00:17:27;98870.38;;;4.99;62.08
75424;BME280;64005;55.160;36.002;2023-03-23T00:19:55;98852.53;;;4.97;62.09
75424;BME280;64005;55.160;36.002;2023-03-23T00:22:22;98852.63;;;4.92;61.58
75424;BME280;64005;55.160;36.002;2023-03-23T00:24:52;98850.34;;;4.94;62.39
75424;BME280;64005;55.160;36.002;2023-03-23T00:27:21;98852.00;;;4.95;62.31
75424;BME280;64005;55.160;36.002;2023-03-23T00:29:49;98856.69;;;4.94;61.62
75424;BME280;64005;55.160;36.002;2023-03-23T00:32:19;98851.56;;;4.88;62.03
75424;BME280;64005;55.160;36.002;2023-03-23T00:34:54;98849.88;;;4.92;62.01
75424;BME280;64005;55.160;36.002;2023-03-23T00:37:24;98852.41;;;4.88;62.19
75424;BME280;64005;55.160;36.002;2023-03-23T00:39:53;98856.56;;;4.86;62.07
75424;BME280;64005;55.160;36.002;2023-03-23T00:42:23;98847.50;;;4.85;62.05
75424;BME280;64005;55.160;36.002;2023-03-23T00:44:50;98854.13;;;4.84;62.28
75424;BME280;64005;55.160;36.002;2023-03-23T00:47:19;98852.69;;;4.87;62.31
75424;BME280;64005;55.160;36.002;2023-03-23T00:49:47;98856.88;;;4.84;62.54
75424;BME280;64005;55.160;36.002;2023-03-23T00:52:15;98848.91;;;4.83;63.08
75424;BME280;64005;55.160;36.002;2023-03-23T00:54:43;98842.06;;;4.80;63.11
75424;BME280;64005;55.160;36.002;2023-03-23T00:57:12;98836.25;;;4.82;62.65
75424;BME280;64005;55.160;36.002;2023-03-23T00:59:39;98823.78;;;4.70;62.96
75424;BME280;64005;55.160;36.002;2023-03-23T01:02:07;98834.13;;;4.78;62.69
75424;BME280;64005;55.160;36.002;2023-03-23T01:04:34;98829.50;;;4.74;63.61
75424;BME280;64005;55.160;36.002;2023-03-23T01:07:05;98832.53;;;4.72;62.99
75424;BME280;64005;55.160;36.002;2023-03-23T01:09:34;98830.59;;;4.73;62.75
75424;BME280;64005;55.160;36.002;2023-03-23T01:12:01;98832.53;;;4.72;63.23
75424;BME280;64005;55.160;36.002;2023-03-23T01:14:31;98816.63;;;4.69;63.71
75424;BME280;64005;55.160;36.002;2023-03-23T01:16:58;98821.03;;;4.70;63.81
75424;BME280;64005;55.160;36.002;2023-03-23T01:19:26;98824.38;;;4.67;63.18
75424;BME280;64005;55.160;36.002;2023-03-23T01:21:53;98826.00;;;4.68;63.49
75424;BME280;64005;55.160;36.002;2023-03-23T01:24:20;98824.66;;;4.66;63.86
75424;BME280;64005;55.160;36.002;2023-03-23T01:26:49;98800.66;;;4.53;63.66
75424;BME280;64005;55.160;36.002;2023-03-23T01:29:16;98825.28;;;4.63;64.16
75424;BME280;64005;55.160;36.002;2023-03-23T01:31:45;98810.16;;;4.60;63.74
75424;BME280;64005;55.160;36.002;2023-03-23T01:34:13;98810.25;;;4.55;63.95
75424;BME280;64005;55.160;36.002;2023-03-23T01:36:40;98812.06;;;4.46;64.28
75424;BME280;64005;55.160;36.002;2023-03-23T01:39:07;98808.00;;;4.44;64.75
75424;BME280;64005;55.160;36.002;2023-03-23T01:41:35;98808.28;;;4.42;65.00
75424;BME280;64005;55.160;36.002;2023-03-23T01:44:04;98768.72;;;4.19;64.73
75424;BME280;64005;55.160;36.002;2023-03-23T01:46:33;98776.91;;;4.24;65.14
75424;BME280;64005;55.160;36.002;2023-03-23T01:49:07;98790.34;;;4.26;65.50
75424;BME280;64005;55.160;36.002;2023-03-23T01:51:37;98783.38;;;4.15;64.89
75424;BME280;64005;55.160;36.002;2023-03-23T01:54:06;98787.50;;;3.98;66.03
75424;BME280;64005;55.160;36.002;2023-03-23T01:56:40;98784.44;;;4.00;65.88
75424;BME280;64005;55.160;36.002;2023-03-23T01:59:11;98788.09;;;3.95;66.17
75424;BME280;64005;55.160;36.002;2023-03-23T02:01:40;98782.16;;;3.88;65.83
75424;BME280;64005;55.160;36.002;2023-03-23T02:04:12;98780.88;;;3.62;66.15
75424;BME280;64005;55.160;36.002;2023-03-23T02:06:41;98775.22;;;3.53;66.51
75424;BME280;64005;55.160;36.002;2023-03-23T02:09:08;98780.84;;;3.43;66.80
75424;BME280;64005;55.160;36.002;2023-03-23T02:11:36;98773.88;;;3.32;67.27
75424;BME280;64005;55.160;36.002;2023-03-23T02:14:03;98779.19;;;3.24;67.61
75424;BME280;64005;55.160;36.002;2023-03-23T02:16:36;98780.66;;;3.16;67.98
75424;BME280;64005;55.160;36.002;2023-03-23T02:19:16;98771.13;;;3.08;68.06
75424;BME280;64005;55.160;36.002;2023-03-23T02:22:28;98767.69;;;2.98;67.91
75424;BME280;64005;55.160;36.002;2023-03-23T02:25:15;98731.53;;;2.62;68.07
75424;BME280;64005;55.160;36.002;2023-03-23T02:28:21;98772.66;;;2.72;68.47
75424;BME280;64005;55.160;36.002;2023-03-23T02:31:30;98780.34;;;2.70;68.62
75424;BME280;64005;55.160;36.002;2023-03-23T02:34:10;98780.97;;;2.62;69.02
75424;BME280;64005;55.160;36.002;2023-03-23T02:36:44;98787.88;;;2.59;69.27
75424;BME280;64005;55.160;36.002;2023-03-23T02:39:17;98785.34;;;2.63;69.30
75424;BME280;64005;55.160;36.002;2023-03-23T02:41:52;98742.72;;;2.42;69.41
75424;BME280;64005;55.160;36.002;2023-03-23T02:44:22;98726.41;;;2.26;69.23
75424;BME280;64005;55.160;36.002;2023-03-23T02:46:54;98791.63;;;2.68;69.50
75424;BME280;64005;55.160;36.002;2023-03-23T02:49:37;98795.19;;;2.69;69.88
75424;BME280;64005;55.160;36.002;2023-03-23T02:52:27;98717.47;;;2.16;69.23
75424;BME280;64005;55.160;36.002;2023-03-23T02:55:13;98798.25;;;2.62;69.81
75424;BME280;64005;55.160;36.002;2023-03-23T02:57:41;98787.06;;;2.59;70.10
75424;BME280;64005;55.160;36.002;2023-03-23T03:00:14;98766.38;;;2.37;70.30
75424;BME280;64005;55.160;36.002;2023-03-23T03:02:59;98789.34;;;2.47;70.65
75424;BME280;64005;55.160;36.002;2023-03-23T03:05:36;98779.50;;;2.40;70.37
75424;BME280;64005;55.160;36.002;2023-03-23T03:08:15;98789.72;;;2.35;70.61
75424;BME280;64005;55.160;36.002;2023-03-23T03:11:06;98786.75;;;2.31;70.82
75424;BME280;64005;55.160;36.002;2023-03-23T03:13:44;98770.13;;;2.18;70.94
75424;BME280;64005;55.160;36.002;2023-03-23T03:19:46;98779.19;;;2.13;71.06
75424;BME280;64005;55.160;36.002;2023-03-23T03:22:35;98768.28;;;2.08;71.00
75424;BME280;64005;55.160;36.002;2023-03-23T03:25:08;98774.34;;;2.05;71.54
75424;BME280;64005;55.160;36.002;2023-03-23T03:27:38;98776.91;;;1.91;71.58
75424;BME280;64005;55.160;36.002;2023-03-23T03:30:10;98753.66;;;1.84;71.75
75424;BME280;64005;55.160;36.002;2023-03-23T03:32:56;98770.84;;;1.94;71.86
75424;BME280;64005;55.160;36.002;2023-03-23T03:38:41;98765.41;;;1.89;71.34
75424;BME280;64005;55.160;36.002;2023-03-23T03:41:25;98771.53;;;1.76;72.09
75424;BME280;64005;55.160;36.002;2023-03-23T03:44:17;98768.75;;;1.81;71.95
75424;BME280;64005;55.160;36.002;2023-03-23T03:47:10;98771.75;;;1.85;72.72
75424;BME280;64005;55.160;36.002;2023-03-23T03:49:58;98775.00;;;1.87;72.23
75424;BME280;64005;55.160;36.002;2023-03-23T03:55:59;98765.97;;;1.86;72.20
75424;BME280;64005;55.160;36.002;2023-03-23T03:58:48;98770.34;;;1.87;72.39
75424;BME280;64005;55.160;36.002;2023-03-23T04:01:17;98765.94;;;1.91;72.19
75424;BME280;64005;55.160;36.002;2023-03-23T04:03:47;98763.72;;;1.93;72.16
75424;BME280;64005;55.160;36.002;2023-03-23T04:06:14;98764.81;;;1.97;72.58
75424;BME280;64005;55.160;36.002;2023-03-23T04:09:06;98755.75;;;1.97;72.12
75424;BME280;64005;55.160;36.002;2023-03-23T04:14:38;98758.41;;;2.07;72.58
75424;BME280;64005;55.160;36.002;2023-03-23T04:17:23;98761.63;;;2.14;72.33
75424;BME280;64005;55.160;36.002;2023-03-23T04:19:52;98759.16;;;2.18;72.63
75424;BME280;64005;55.160;36.002;2023-03-23T04:22:22;98752.50;;;2.24;72.60
75424;BME280;64005;55.160;36.002;2023-03-23T04:25:08;98739.88;;;2.23;72.60
75424;BME280;64005;55.160;36.002;2023-03-23T04:27:40;98746.63;;;2.35;72.48
75424;BME280;64005;55.160;36.002;2023-03-23T04:30:10;98741.09;;;2.40;72.51
75424;BME280;64005;55.160;36.002;2023-03-23T04:32:39;98746.56;;;2.46;72.38
75424;BME280;64005;55.160;36.002;2023-03-23T04:35:09;98745.06;;;2.53;72.33
75424;BME280;64005;55.160;36.002;2023-03-23T04:37:38;98747.47;;;2.60;72.38
75424;BME280;64005;55.160;36.002;2023-03-23T04:40:23;98752.94;;;2.65;72.68
75424;BME280;64005;55.160;36.002;2023-03-23T04:46:13;98755.22;;;2.82;72.55
75424;BME280;64005;55.160;36.002;2023-03-23T04:49:15;98744.94;;;2.92;72.00
75424;BME280;64005;55.160;36.002;2023-03-23T04:51:48;98743.19;;;3.01;72.40
75424;BME280;64005;55.160;36.002;2023-03-23T04:54:34;98738.31;;;3.17;72.00
75424;BME280;64005;55.160;36.002;2023-03-23T04:57:02;98741.53;;;3.24;72.14
75424;BME280;64005;55.160;36.002;2023-03-23T04:59:29;98751.50;;;3.39;71.95
75424;BME280;64005;55.160;36.002;2023-03-23T05:01:58;98745.56;;;3.50;72.03
75424;BME280;64005;55.160;36.002;2023-03-23T05:04:26;98750.63;;;3.62;72.11
75424;BME280;64005;55.160;36.002;2023-03-23T05:09:39;98767.03;;;3.86;71.44
75424;BME280;64005;55.160;36.002;2023-03-23T05:12:24;98757.81;;;3.95;71.19
75424;BME280;64005;55.160;36.002;2023-03-23T05:14:52;98750.22;;;4.06;71.10
75424;BME280;64005;55.160;36.002;2023-03-23T05:17:21;98753.34;;;4.18;71.27
75424;BME280;64005;55.160;36.002;2023-03-23T05:22:53;98759.81;;;4.41;70.79
75424;BME280;64005;55.160;36.002;2023-03-23T05:25:22;98760.16;;;4.53;70.44
75424;BME280;64005;55.160;36.002;2023-03-23T05:27:49;98757.13;;;4.68;70.60
75424;BME280;64005;55.160;36.002;2023-03-23T05:33:24;98753.06;;;4.93;69.66
75424;BME280;64005;55.160;36.002;2023-03-23T05:35:52;98759.72;;;5.06;70.22
75424;BME280;64005;55.160;36.002;2023-03-23T05:38:19;98749.84;;;5.18;69.37
75424;BME280;64005;55.160;36.002;2023-03-23T05:40:48;98735.41;;;5.22;69.08
75424;BME280;64005;55.160;36.002;2023-03-23T05:43:15;98745.19;;;5.41;69.92
75424;BME280;64005;55.160;36.002;2023-03-23T05:45:43;98755.38;;;5.54;68.70
75424;BME280;64005;55.160;36.002;2023-03-23T05:48:11;98754.03;;;5.66;68.63
75424;BME280;64005;55.160;36.002;2023-03-23T05:56:29;98757.44;;;5.98;68.30
75424;BME280;64005;55.160;36.002;2023-03-23T06:05:04;98758.78;;;6.46;67.33
75424;BME280;64005;55.160;36.002;2023-03-23T06:07:34;98748.91;;;6.53;66.73
75424;BME280;64005;55.160;36.002;2023-03-23T06:13:41;98750.31;;;6.73;66.09
75424;BME280;64005;55.160;36.002;2023-03-23T06:16:10;98748.75;;;6.81;66.36
75424;BME280;64005;55.160;36.002;2023-03-23T06:18:37;98751.41;;;6.94;65.76
75424;BME280;64005;55.160;36.002;2023-03-23T06:21:25;98748.38;;;7.04;65.66
75424;BME280;64005;55.160;36.002;2023-03-23T06:23:54;98742.88;;;7.13;64.87
75424;BME280;64005;55.160;36.002;2023-03-23T06:26:23;98730.34;;;7.15;64.65
75424;BME280;64005;55.160;36.002;2023-03-23T06:28:52;98745.00;;;7.16;64.54
75424;BME280;64005;55.160;36.002;2023-03-23T06:34:23;98746.41;;;7.44;64.34
75424;BME280;64005;55.160;36.002;2023-03-23T06:37:06;98747.72;;;7.55;63.90
75424;BME280;64005;55.160;36.002;2023-03-23T06:39:35;98745.63;;;7.70;63.88
75424;BME280;64005;55.160;36.002;2023-03-23T06:42:21;98756.72;;;7.87;63.07
75424;BME280;64005;55.160;36.002;2023-03-23T06:45:08;98745.16;;;8.02;62.93
75424;BME280;64005;55.160;36.002;2023-03-23T06:47:36;98744.84;;;8.04;62.78
75424;BME280;64005;55.160;36.002;2023-03-23T06:50:05;98740.75;;;8.18;62.16
75424;BME280;64005;55.160;36.002;2023-03-23T06:52:50;98752.34;;;8.29;61.83
75424;BME280;64005;55.160;36.002;2023-03-23T06:55:19;98743.38;;;8.41;61.80
75424;BME280;64005;55.160;36.002;2023-03-23T07:00:35;98747.91;;;8.62;61.00
75424;BME280;64005;55.160;36.002;2023-03-23T07:03:21;98751.31;;;8.76;60.68
75424;BME280;64005;55.160;36.002;2023-03-23T07:05:50;98751.13;;;8.82;60.67
75424;BME280;64005;55.160;36.002;2023-03-23T07:08:36;98743.59;;;8.91;60.20
75424;BME280;64005;55.160;36.002;2023-03-23T07:11:23;98747.63;;;9.02;59.92
75424;BME280;64005;55.160;36.002;2023-03-23T07:13:51;98751.97;;;9.20;59.57
75424;BME280;64005;55.160;36.002;2023-03-23T07:16:18;98727.66;;;9.17;59.00
75424;BME280;64005;55.160;36.002;2023-03-23T07:18:46;98746.78;;;9.39;58.75
75424;BME280;64005;55.160;36.002;2023-03-23T07:21:13;98745.13;;;9.47;58.40
75424;BME280;64005;55.160;36.002;2023-03-23T07:23:42;98735.25;;;9.58;58.01
75424;BME280;64005;55.160;36.002;2023-03-23T07:29:36;98728.50;;;9.68;57.30
75424;BME280;64005;55.160;36.002;2023-03-23T07:32:05;98731.41;;;9.71;57.41
75424;BME280;64005;55.160;36.002;2023-03-23T07:34:50;98717.19;;;9.73;57.16
75424;BME280;64005;55.160;36.002;2023-03-23T07:40:39;98722.78;;;9.64;57.16
75424;BME280;64005;55.160;36.002;2023-03-23T07:43:07;98708.13;;;9.64;57.13
75424;BME280;64005;55.160;36.002;2023-03-23T07:45:50;98706.63;;;9.66;56.79
75424;BME280;64005;55.160;36.002;2023-03-23T07:48:18;98708.38;;;9.71;56.64
75424;BME280;64005;55.160;36.002;2023-03-23T07:50:46;98633.84;;;9.31;56.66
75424;BME280;64005;55.160;36.002;2023-03-23T07:55:56;98692.97;;;9.82;56.18
75424;BME280;64005;55.160;36.002;2023-03-23T08:01:34;98689.34;;;10.02;55.35
75424;BME280;64005;55.160;36.002;2023-03-23T08:04:10;98692.19;;;10.14;55.37
75424;BME280;64005;55.160;36.002;2023-03-23T08:06:45;98689.69;;;10.21;55.00
75424;BME280;64005;55.160;36.002;2023-03-23T08:15:12;98679.91;;;10.36;54.19
75424;BME280;64005;55.160;36.002;2023-03-23T08:17:42;98694.09;;;10.55;54.25
75424;BME280;64005;55.160;36.002;2023-03-23T08:35:15;98659.41;;;11.22;52.69
75424;BME280;64005;55.160;36.002;2023-03-23T08:46:09;98647.75;;;11.57;51.56
75424;BME280;64005;55.160;36.002;2023-03-23T08:48:37;98639.84;;;11.59;50.58
75424;BME280;64005;55.160;36.002;2023-03-23T08:51:09;98640.63;;;11.71;50.72
75424;BME280;64005;55.160;36.002;2023-03-23T08:54:06;98641.34;;;11.80;50.54
75424;BME280;64005;55.160;36.002;2023-03-23T09:02:12;98638.63;;;11.96;49.50
75424;BME280;64005;55.160;36.002;2023-03-23T09:04:40;98633.94;;;12.00;49.23
75424;BME280;64005;55.160;36.002;2023-03-23T09:10:03;98626.59;;;12.08;48.92
75424;BME280;64005;55.160;36.002;2023-03-23T09:12:31;98623.56;;;12.13;48.92
75424;BME280;64005;55.160;36.002;2023-03-23T09:15:14;98606.00;;;12.12;48.25
75424;BME280;64005;55.160;36.002;2023-03-23T09:17:43;98614.06;;;12.29;48.10
75424;BME280;64005;55.160;36.002;2023-03-23T09:20:12;98614.44;;;12.44;47.74
75424;BME280;64005;55.160;36.002;2023-03-23T09:34:43;98591.69;;;12.57;46.85
75424;BME280;64005;55.160;36.002;2023-03-23T09:42:36;98589.53;;;12.82;45.55
75424;BME280;64005;55.160;36.002;2023-03-23T09:55:49;98597.34;;;13.08;44.63
75424;BME280;64005;55.160;36.002;2023-03-23T09:58:20;98576.28;;;12.95;44.34
75424;BME280;64005;55.160;36.002;2023-03-23T10:05:55;98581.38;;;13.24;43.91
75424;BME280;64005;55.160;36.002;2023-03-23T10:08:24;98578.91;;;13.38;43.94
75424;BME280;64005;55.160;36.002;2023-03-23T10:11:10;98572.78;;;13.48;43.47
75424;BME280;64005;55.160;36.002;2023-03-23T10:25:15;98574.53;;;13.57;43.14
75424;BME280;64005;55.160;36.002;2023-03-23T10:27:50;98568.72;;;13.46;43.58
75424;BME280;64005;55.160;36.002;2023-03-23T10:30:24;98549.44;;;13.41;43.36
75424;BME280;64005;55.160;36.002;2023-03-23T10:33:00;98564.09;;;13.73;43.17
75424;BME280;64005;55.160;36.002;2023-03-23T10:35:33;98575.69;;;14.13;43.04
75424;BME280;64005;55.160;36.002;2023-03-23T10:38:13;98570.28;;;14.43;42.35
75424;BME280;64005;55.160;36.002;2023-03-23T11:06:44;98545.19;;;14.47;42.16
75424;BME280;64005;55.160;36.002;2023-03-23T11:09:13;98545.09;;;14.43;42.09
75424;BME280;64005;55.160;36.002;2023-03-23T11:11:55;98537.72;;;14.12;42.13
75424;BME280;64005;55.160;36.002;2023-03-23T11:17:55;98555.25;;;13.90;42.74
75424;BME280;64005;55.160;36.002;2023-03-23T11:20:47;98552.84;;;13.88;42.90
75424;BME280;64005;55.160;36.002;2023-03-23T11:23:21;98554.19;;;13.75;43.13
75424;BME280;64005;55.160;36.002;2023-03-23T11:25:58;98557.19;;;13.67;43.31
75424;BME280;64005;55.160;36.002;2023-03-23T11:28:31;98541.38;;;13.74;43.09
75424;BME280;64005;55.160;36.002;2023-03-23T11:31:03;98548.28;;;13.80;43.14
75424;BME280;64005;55.160;36.002;2023-03-23T11:33:37;98548.19;;;13.77;42.94
75424;BME280;64005;55.160;36.002;2023-03-23T11:36:07;98525.53;;;13.43;43.12
75424;BME280;64005;55.160;36.002;2023-03-23T11:38:37;98553.78;;;13.58;43.15
75424;BME280;64005;55.160;36.002;2023-03-23T11:41:10;98548.72;;;13.63;43.35
75424;BME280;64005;55.160;36.002;2023-03-23T11:43:41;98553.38;;;13.75;42.90
75424;BME280;64005;55.160;36.002;2023-03-23T11:46:33;98555.50;;;13.81;42.59
75424;BME280;64005;55.160;36.002;2023-03-23T11:49:08;98558.03;;;13.90;42.76
75424;BME280;64005;55.160;36.002;2023-03-23T11:51:41;98565.84;;;14.00;42.24
75424;BME280;64005;55.160;36.002;2023-03-23T11:54:22;98559.50;;;14.03;42.42
75424;BME280;64005;55.160;36.002;2023-03-23T11:57:21;98559.13;;;14.05;42.52
75424;BME280;64005;55.160;36.002;2023-03-23T11:59:50;98560.97;;;14.16;42.27
75424;BME280;64005;55.160;36.002;2023-03-23T12:02:35;98552.69;;;14.23;42.10
75424;BME280;64005;55.160;36.002;2023-03-23T12:05:32;98544.31;;;14.23;42.27
75424;BME280;64005;55.160;36.002;2023-03-23T12:08:14;98549.81;;;13.97;42.74
75424;BME280;64005;55.160;36.002;2023-03-23T12:10:50;98548.50;;;13.72;42.74
75424;BME280;64005;55.160;36.002;2023-03-23T12:13:35;98540.47;;;13.51;43.17
75424;BME280;64005;55.160;36.002;2023-03-23T12:16:07;98537.72;;;13.16;43.88
75424;BME280;64005;55.160;36.002;2023-03-23T12:18:43;98534.00;;;13.12;44.04
75424;BME280;64005;55.160;36.002;2023-03-23T12:21:19;98536.19;;;13.03;43.76
75424;BME280;64005;55.160;36.002;2023-03-23T12:23:55;98535.00;;;13.04;44.17
75424;BME280;64005;55.160;36.002;2023-03-23T12:26:30;98533.50;;;12.91;44.48
75424;BME280;64005;55.160;36.002;2023-03-23T12:29:23;98527.03;;;12.87;44.19
75424;BME280;64005;55.160;36.002;2023-03-23T12:32:03;98523.78;;;12.85;44.65
75424;BME280;64005;55.160;36.002;2023-03-23T12:34:40;98525.50;;;12.89;44.41
75424;BME280;64005;55.160;36.002;2023-03-23T12:37:29;98515.38;;;13.00;44.59
75424;BME280;64005;55.160;36.002;2023-03-23T12:40:12;98503.13;;;13.05;44.07
75424;BME280;64005;55.160;36.002;2023-03-23T12:42:54;98499.50;;;13.04;44.32
75424;BME280;64005;55.160;36.002;2023-03-23T12:45:41;98493.50;;;13.02;44.06
75424;BME280;64005;55.160;36.002;2023-03-23T12:48:13;98496.81;;;13.08;44.61
75424;BME280;64005;55.160;36.002;2023-03-23T12:50:47;98503.75;;;13.14;44.17
75424;BME280;64005;55.160;36.002;2023-03-23T12:53:20;98497.81;;;13.16;44.12
75424;BME280;64005;55.160;36.002;2023-03-23T12:55:52;98482.69;;;13.01;43.95
75424;BME280;64005;55.160;36.002;2023-03-23T12:58:26;98489.75;;;12.95;44.13
75424;BME280;64005;55.160;36.002;2023-03-23T13:00:56;98483.63;;;12.89;44.50
75424;BME280;64005;55.160;36.002;2023-03-23T13:03:30;98486.97;;;12.79;44.82
75424;BME280;64005;55.160;36.002;2023-03-23T13:06:05;98488.25;;;12.66;45.00
75424;BME280;64005;55.160;36.002;2023-03-23T13:08:37;98483.44;;;12.47;44.87
75424;BME280;64005;55.160;36.002;2023-03-23T13:11:14;98473.19;;;12.36;45.44
75424;BME280;64005;55.160;36.002;2023-03-23T13:13:50;98480.28;;;12.33;45.85
75424;BME280;64005;55.160;36.002;2023-03-23T13:16:27;98478.19;;;12.30;45.57
75424;BME280;64005;55.160;36.002;2023-03-23T13:19:06;98465.28;;;12.22;45.58
75424;BME280;64005;55.160;36.002;2023-03-23T13:21:43;98460.31;;;12.15;45.61
75424;BME280;64005;55.160;36.002;2023-03-23T13:24:14;98474.63;;;12.14;46.04
75424;BME280;64005;55.160;36.002;2023-03-23T13:26:45;98472.91;;;12.09;45.94
75424;BME280;64005;55.160;36.002;2023-03-23T13:29:18;98446.00;;;11.85;46.17
75424;BME280;64005;55.160;36.002;2023-03-23T13:31:47;98463.91;;;12.00;45.86
75424;BME280;64005;55.160;36.002;2023-03-23T13:34:18;98424.09;;;11.72;46.13
75424;BME280;64005;55.160;36.002;2023-03-23T13:36:54;98467.69;;;12.08;46.12
75424;BME280;64005;55.160;36.002;2023-03-23T13:39:24;98466.41;;;12.05;45.81
75424;BME280;64005;55.160;36.002;2023-03-23T13:42:05;98456.72;;;11.99;46.11
75424;BME280;64005;55.160;36.002;2023-03-23T13:44:43;98458.75;;;11.86;45.99
75424;BME280;64005;55.160;36.002;2023-03-23T13:47:27;98464.41;;;11.74;46.31
75424;BME280;64005;55.160;36.002;2023-03-23T13:50:09;98452.94;;;11.64;47.06
75424;BME280;64005;55.160;36.002;2023-03-23T13:52:46;98448.56;;;11.63;46.91
75424;BME280;64005;55.160;36.002;2023-03-23T13:55:30;98430.63;;;11.48;46.86
75424;BME280;64005;55.160;36.002;2023-03-23T13:58:10;98453.41;;;11.66;46.78
75424;BME280;64005;55.160;36.002;2023-03-23T14:00:48;98452.31;;;11.70;46.87
75424;BME280;64005;55.160;36.002;2023-03-23T14:03:23;98441.84;;;11.79;46.62
75424;BME280;64005;55.160;36.002;2023-03-23T14:06:02;98441.06;;;11.94;46.32
75424;BME280;64005;55.160;36.002;2023-03-23T14:08:39;98432.16;;;11.89;46.70
75424;BME280;64005;55.160;36.002;2023-03-23T14:11:17;98415.31;;;11.70;46.60
75424;BME280;64005;55.160;36.002;2023-03-23T14:13:51;98423.09;;;11.64;47.10
75424;BME280;64005;55.160;36.002;2023-03-23T14:16:31;98419.56;;;11.51;47.15
75424;BME280;64005;55.160;36.002;2023-03-23T14:19:00;98417.94;;;11.50;47.21
75424;BME280;64005;55.160;36.002;2023-03-23T14:21:34;98424.44;;;11.54;46.71
75424;BME280;64005;55.160;36.002;2023-03-23T14:24:09;98419.06;;;11.62;46.73
75424;BME280;64005;55.160;36.002;2023-03-23T14:26:37;98417.19;;;11.66;47.08
75424;BME280;64005;55.160;36.002;2023-03-23T14:29:06;98414.13;;;11.71;46.95
75424;BME280;64005;55.160;36.002;2023-03-23T14:31:35;98413.69;;;11.69;47.25
75424;BME280;64005;55.160;36.002;2023-03-23T14:34:05;98413.69;;;11.69;46.94
75424;BME280;64005;55.160;36.002;2023-03-23T14:36:39;98412.41;;;11.66;47.10
75424;BME280;64005;55.160;36.002;2023-03-23T14:39:21;98405.22;;;11.65;47.49
75424;BME280;64005;55.160;36.002;2023-03-23T14:41:50;98405.03;;;11.58;47.39
75424;BME280;64005;55.160;36.002;2023-03-23T14:44:23;98396.28;;;11.44;47.76
75424;BME280;64005;55.160;36.002;2023-03-23T14:46:53;98401.22;;;11.35;48.06
75424;BME280;64005;55.160;36.002;2023-03-23T14:49:29;98388.63;;;11.25;47.64
75424;BME280;64005;55.160;36.002;2023-03-23T14:51:57;98400.81;;;11.21;48.00
75424;BME280;64005;55.160;36.002;2023-03-23T14:54:32;98396.22;;;11.12;48.19
75424;BME280;64005;55.160;36.002;2023-03-23T14:57:11;98300.22;;;10.51;48.49
75424;BME280;64005;55.160;36.002;2023-03-23T14:59:40;98394.09;;;10.94;48.87
75424;BME280;64005;55.160;36.002;2023-03-23T15:02:16;98379.00;;;10.67;48.89
75424;BME280;64005;55.160;36.002;2023-03-23T15:04:45;98369.53;;;10.56;49.31
75424;BME280;64005;55.160;36.002;2023-03-23T15:07:15;98393.50;;;10.60;49.34
75424;BME280;64005;55.160;36.002;2023-03-23T15:09:45;98394.94;;;10.42;49.55
75424;BME280;64005;55.160;36.002;2023-03-23T15:12:24;98395.03;;;10.33;49.99
75424;BME280;64005;55.160;36.002;2023-03-23T15:14:55;98390.66;;;10.20;50.35
75424;BME280;64005;55.160;36.002;2023-03-23T15:17:26;98359.13;;;9.92;50.56
75424;BME280;64005;55.160;36.002;2023-03-23T15:19:55;98384.72;;;9.97;50.72
75424;BME280;64005;55.160;36.002;2023-03-23T15:22:25;98365.28;;;9.85;51.17
75424;BME280;64005;55.160;36.002;2023-03-23T15:25:03;98366.09;;;9.74;51.21
75424;BME280;64005;55.160;36.002;2023-03-23T15:27:34;98365.25;;;9.61;51.56
75424;BME280;64005;55.160;36.002;2023-03-23T15:30:13;98370.91;;;9.52;51.81
75424;BME280;64005;55.160;36.002;2023-03-23T15:32:45;98366.38;;;9.36;51.99
75424;BME280;64005;55.160;36.002;2023-03-23T15:35:16;98346.88;;;9.11;52.21
75424;BME280;64005;55.160;36.002;2023-03-23T15:37:45;98367.69;;;9.17;52.71
75424;BME280;64005;55.160;36.002;2023-03-23T15:40:18;98361.66;;;9.03;52.90
75424;BME280;64005;55.160;36.002;2023-03-23T15:42:47;98366.25;;;8.99;53.10
75424;BME280;64005;55.160;36.002;2023-03-23T15:45:26;98377.47;;;8.91;53.02
75424;BME280;64005;55.160;36.002;2023-03-23T15:47:58;98344.28;;;8.61;53.82
75424;BME280;64005;55.160;36.002;2023-03-23T15:50:34;98363.13;;;8.68;53.67
75424;BME280;64005;55.160;36.002;2023-03-23T15:53:18;98359.97;;;8.57;53.72
75424;BME280;64005;55.160;36.002;2023-03-23T15:55:46;98369.63;;;8.51;54.11
75424;BME280;64005;55.160;36.002;2023-03-23T15:58:14;98363.00;;;8.44;54.40
75424;BME280;64005;55.160;36.002;2023-03-23T16:00:42;98371.50;;;8.38;54.32
75424;BME280;64005;55.160;36.002;2023-03-23T16:03:16;98354.28;;;8.24;54.74
75424;BME280;64005;55.160;36.002;2023-03-23T16:05:44;98366.34;;;8.28;54.72
75424;BME280;64005;55.160;36.002;2023-03-23T16:08:12;98369.78;;;8.25;54.76
75424;BME280;64005;55.160;36.002;2023-03-23T16:10:41;98365.72;;;8.23;54.95
75424;BME280;64005;55.160;36.002;2023-03-23T16:13:08;98370.31;;;8.19;55.48
75424;BME280;64005;55.160;36.002;2023-03-23T16:15:36;98366.72;;;8.18;54.88
75424;BME280;64005;55.160;36.002;2023-03-23T16:18:03;98365.91;;;8.18;55.03
75424;BME280;64005;55.160;36.002;2023-03-23T16:20:33;98368.69;;;8.18;55.11
75424;BME280;64005;55.160;36.002;2023-03-23T16:23:00;98361.53;;;8.17;55.12